Time;durP1;ratioP1;P1;durP2;ratioP2;P2;SDS_P1;SDS_P2;PMS_P1;PMS_P2;Temp;Humidity;BMP_temperature;BMP_pressure;BME280_temperature;BME280_humidity;BME280_pressure;Samples;Min_cycle;Max_cycle;Signal;HPM_P1;HPM_P2
2022/07/23 00:00:05;;;;;;;13.53;10.83;;;20.40;99.90;;;;;;5085419;28;20177;-61
2022/07/23 00:02:31;;;;;;;15.00;10.73;;;20.40;99.90;;;;;;5082458;28;20749;-60
2022/07/23 00:04:57;;;;;;;12.77;10.00;;;20.40;99.90;;;;;;5083232;28;20423;-60
2022/07/23 00:07:22;;;;;;;12.87;10.77;;;20.30;99.90;;;;;;5082873;28;20250;-61
2022/07/23 00:09:48;;;;;;;16.03;10.03;;;20.30;99.90;;;;;;5083914;28;20188;-59
2022/07/23 00:12:14;;;;;;;12.30;9.77;;;20.30;99.90;;;;;;5080107;28;20186;-61
2022/07/23 00:14:39;;;;;;;11.80;10.00;;;20.30;99.90;;;;;;5080930;28;20174;-61
2022/07/23 00:17:05;;;;;;;10.90;9.40;;;20.30;99.90;;;;;;5083796;28;20185;-60
2022/07/23 00:19:30;;;;;;;13.30;10.27;;;20.30;99.90;;;;;;5086080;28;20174;-60
2022/07/23 00:21:56;;;;;;;15.53;9.90;;;20.30;99.90;;;;;;5083101;28;20691;-60
2022/07/23 00:24:21;;;;;;;10.97;9.70;;;20.30;99.90;;;;;;5086241;28;20173;-61
2022/07/23 00:26:47;;;;;;;11.97;9.90;;;20.20;99.90;;;;;;5084913;28;20234;-60
2022/07/23 00:29:13;;;;;;;15.00;10.27;;;20.20;99.90;;;;;;5084581;28;20189;-60
2022/07/23 00:31:38;;;;;;;10.83;9.73;;;20.20;99.90;;;;;;5081161;28;20205;-60
2022/07/23 00:34:04;;;;;;;18.50;10.90;;;20.20;99.90;;;;;;5085525;28;20720;-60
2022/07/23 00:36:31;;;;;;;15.33;9.97;;;20.20;99.90;;;;;;5083629;28;20712;-60
2022/07/23 00:38:57;;;;;;;12.33;9.37;;;20.10;99.90;;;;;;5083750;28;20658;-60
2022/07/23 00:41:22;;;;;;;13.80;9.43;;;20.10;99.90;;;;;;5083645;28;20437;-60
2022/07/23 00:43:48;;;;;;;14.57;10.00;;;20.00;99.90;;;;;;5090877;28;20189;-61
2022/07/23 00:46:19;;;;;;;12.20;10.10;;;19.90;99.90;;;;;;5081085;28;20249;-60
2022/07/23 00:48:45;;;;;;;18.07;11.10;;;19.90;99.90;;;;;;5091693;28;20209;-61
2022/07/23 00:51:11;;;;;;;17.90;12.20;;;19.90;99.90;;;;;;5087403;28;20454;-60
2022/07/23 00:53:36;;;;;;;17.27;11.93;;;19.90;99.90;;;;;;5085046;28;20688;-60
2022/07/23 00:56:02;;;;;;;16.20;11.20;;;19.80;99.90;;;;;;5085560;28;20265;-61
2022/07/23 00:58:28;;;;;;;16.40;10.17;;;19.80;99.90;;;;;;5085638;28;20194;-60
2022/07/23 01:00:53;;;;;;;12.03;10.23;;;19.80;99.90;;;;;;5086771;28;20178;-60
2022/07/23 01:03:19;;;;;;;13.97;9.70;;;19.70;99.90;;;;;;5085891;28;20174;-60
2022/07/23 01:05:45;;;;;;;12.93;10.20;;;19.60;99.90;;;;;;5085653;28;20277;-60
2022/07/23 01:08:12;;;;;;;16.60;10.33;;;19.50;99.90;;;;;;5084973;28;20193;-60
2022/07/23 01:10:37;;;;;;;16.40;11.40;;;19.50;99.90;;;;;;5084584;28;20567;-61
2022/07/23 01:13:08;;;;;;;15.53;11.27;;;19.50;99.90;;;;;;5079473;28;20455;-61
2022/07/23 01:15:35;;;;;;;15.10;10.43;;;19.50;99.90;;;;;;5085510;28;20174;-60
2022/07/23 01:18:01;;;;;;;16.87;11.30;;;19.50;99.90;;;;;;5090955;28;20419;-60
2022/07/23 01:20:26;;;;;;;15.47;11.17;;;19.50;99.90;;;;;;5087652;28;20500;-61
2022/07/23 01:22:53;;;;;;;13.23;10.70;;;19.50;99.90;;;;;;5080540;28;20662;-60
2022/07/23 01:25:19;;;;;;;15.37;12.33;;;19.50;99.90;;;;;;5088497;28;20185;-61
2022/07/23 01:27:45;;;;;;;18.80;10.90;;;19.50;99.90;;;;;;5088411;28;20447;-60
2022/07/23 01:30:11;;;;;;;16.83;12.10;;;19.50;99.90;;;;;;5085178;28;20477;-60
2022/07/23 01:32:37;;;;;;;15.53;11.40;;;19.50;99.90;;;;;;5085199;28;20209;-60
2022/07/23 01:35:04;;;;;;;16.07;11.23;;;19.40;99.90;;;;;;5087650;28;20835;-61
2022/07/23 01:37:30;;;;;;;13.07;10.73;;;19.50;99.90;;;;;;5079566;28;20198;-60
2022/07/23 01:39:55;;;;;;;13.60;10.80;;;19.40;99.90;;;;;;5086005;28;20508;-60
2022/07/23 01:42:21;;;;;;;15.73;11.47;;;19.40;99.90;;;;;;5078032;28;20175;-60
2022/07/23 01:44:46;;;;;;;16.23;11.80;;;19.40;99.90;;;;;;5085205;28;20710;-60
2022/07/23 01:47:12;;;;;;;16.50;12.30;;;19.30;99.90;;;;;;5090615;28;20174;-60
2022/07/23 01:49:38;;;;;;;14.37;12.83;;;19.30;99.90;;;;;;5085920;28;20530;-60
2022/07/23 01:52:06;;;;;;;14.30;12.13;;;19.30;99.90;;;;;;5087383;28;20194;-60
2022/07/23 01:54:33;;;;;;;16.07;11.53;;;19.30;99.90;;;;;;5084331;28;20208;-61
2022/07/23 01:57:00;;;;;;;14.90;11.80;;;19.30;99.90;;;;;;5087360;28;20409;-60
2022/07/23 01:59:27;;;;;;;21.17;12.47;;;19.30;99.90;;;;;;5084495;28;20460;-60
2022/07/23 02:01:54;;;;;;;16.20;11.13;;;19.30;99.90;;;;;;5088721;28;20504;-60
2022/07/23 02:04:21;;;;;;;16.57;12.20;;;19.30;99.90;;;;;;5081540;28;20462;-60
2022/07/23 02:06:47;;;;;;;18.00;11.07;;;19.30;99.90;;;;;;5075806;28;20522;-60
2022/07/23 02:09:13;;;;;;;18.80;11.40;;;19.30;99.90;;;;;;5071396;28;21012;-65
2022/07/23 02:11:38;;;;;;;18.10;11.87;;;19.30;99.90;;;;;;5078165;28;20488;-61
2022/07/23 02:14:04;;;;;;;15.77;12.00;;;19.30;99.90;;;;;;5073813;28;20225;-60
2022/07/23 02:16:30;;;;;;;13.67;11.37;;;19.30;99.90;;;;;;5077660;28;20658;-61
2022/07/23 02:18:55;;;;;;;13.73;10.67;;;19.30;99.90;;;;;;5081847;28;20224;-60
2022/07/23 02:21:21;;;;;;;15.70;11.03;;;19.20;99.90;;;;;;5076937;28;20214;-60
2022/07/23 02:23:47;;;;;;;22.00;11.50;;;19.20;99.90;;;;;;5074017;28;20182;-60
2022/07/23 02:26:13;;;;;;;20.93;10.80;;;19.20;99.90;;;;;;5077305;28;20253;-60
2022/07/23 02:28:38;;;;;;;16.87;11.20;;;19.20;99.90;;;;;;5076108;28;20217;-59
2022/07/23 02:31:04;;;;;;;17.67;11.30;;;19.20;99.90;;;;;;5074132;28;20253;-59
2022/07/23 02:33:30;;;;;;;15.80;11.23;;;19.30;99.90;;;;;;5077382;28;20263;-60
2022/07/23 02:35:55;;;;;;;13.00;11.17;;;19.30;99.90;;;;;;5077680;28;20172;-61
2022/07/23 02:38:21;;;;;;;14.70;10.90;;;19.20;99.90;;;;;;5076922;28;20667;-61
2022/07/23 02:40:47;;;;;;;14.00;10.93;;;19.20;99.90;;;;;;5081533;28;20731;-60
2022/07/23 02:43:12;;;;;;;12.43;10.30;;;19.20;99.90;;;;;;5071911;28;20198;-60
2022/07/23 02:45:38;;;;;;;15.20;11.33;;;19.20;99.90;;;;;;5078176;28;20659;-60
2022/07/23 02:48:04;;;;;;;12.83;10.73;;;19.20;99.90;;;;;;5073806;28;20282;-60
2022/07/23 02:50:29;;;;;;;15.57;12.33;;;19.10;99.90;;;;;;5081897;28;20681;-60
2022/07/23 02:52:55;;;;;;;16.63;12.30;;;19.10;99.90;;;;;;5073443;28;20213;-60
2022/07/23 02:55:21;;;;;;;18.50;12.77;;;19.10;99.90;;;;;;5076713;28;20732;-60
2022/07/23 02:57:46;;;;;;;20.97;13.30;;;19.10;99.90;;;;;;5077460;28;20626;-61
2022/07/23 03:00:12;;;;;;;20.27;13.83;;;19.10;99.90;;;;;;5075423;28;20681;-60
2022/07/23 03:02:38;;;;;;;17.13;13.93;;;19.20;99.90;;;;;;5077479;28;20325;-60
2022/07/23 03:05:04;;;;;;;17.70;12.80;;;19.20;99.90;;;;;;5074784;28;20432;-60
2022/07/23 03:07:29;;;;;;;20.33;14.57;;;19.30;99.90;;;;;;5075780;28;20197;-60
2022/07/23 03:09:55;;;;;;;16.70;13.20;;;19.30;99.90;;;;;;5077279;28;20436;-60
2022/07/23 03:12:21;;;;;;;17.80;12.20;;;19.30;99.90;;;;;;5076704;28;22402;-60
2022/07/23 03:14:46;;;;;;;21.37;13.20;;;19.30;99.90;;;;;;5078092;28;20190;-61
2022/07/23 03:17:12;;;;;;;16.80;12.20;;;19.20;99.90;;;;;;5073862;28;20173;-60
2022/07/23 03:19:38;;;;;;;25.93;12.33;;;19.10;99.90;;;;;;5076951;28;20559;-60
2022/07/23 03:22:04;;;;;;;19.23;12.33;;;19.10;99.90;;;;;;5073874;28;20524;-61
2022/07/23 03:27:14;;;;;;;20.53;12.73;;;19.10;99.90;;;;;;5075136;28;20403;-60
2022/07/23 03:29:40;;;;;;;16.73;13.20;;;19.10;99.90;;;;;;5073355;28;20416;-60
2022/07/23 03:32:06;;;;;;;17.10;13.50;;;19.10;99.90;;;;;;5075383;28;20247;-60
2022/07/23 03:34:31;;;;;;;18.70;12.73;;;19.10;99.90;;;;;;5074586;28;20232;-61
2022/07/23 03:36:57;;;;;;;25.00;15.33;;;19.10;99.90;;;;;;5076611;28;20829;-61
2022/07/23 03:39:22;;;;;;;22.27;14.20;;;19.10;99.90;;;;;;5071340;28;20179;-60
2022/07/23 03:41:48;;;;;;;23.23;14.70;;;19.20;99.90;;;;;;5076331;28;20177;-60
2022/07/23 03:44:14;;;;;;;20.67;14.50;;;19.20;99.90;;;;;;5073622;28;20260;-60
2022/07/23 03:46:39;;;;;;;23.10;15.20;;;19.20;99.90;;;;;;5077410;28;20181;-60
2022/07/23 03:49:05;;;;;;;20.30;14.77;;;19.20;99.90;;;;;;5076389;28;20194;-60
2022/07/23 03:51:30;;;;;;;25.03;14.80;;;19.20;99.90;;;;;;5073953;28;20219;-60
2022/07/23 03:53:56;;;;;;;18.40;14.70;;;19.20;99.90;;;;;;5075802;28;20544;-60
2022/07/23 03:56:22;;;;;;;20.10;14.13;;;19.20;99.90;;;;;;5077617;28;20193;-60
2022/07/23 03:58:47;;;;;;;20.97;14.00;;;19.10;99.90;;;;;;5076402;28;20205;-60
2022/07/23 04:01:13;;;;;;;20.50;13.97;;;19.10;99.90;;;;;;5074253;28;20193;-61
2022/07/23 04:03:39;;;;;;;22.07;14.37;;;19.10;99.90;;;;;;5078106;28;20186;-60
2022/07/23 04:06:05;;;;;;;17.73;13.00;;;19.00;99.90;;;;;;5074786;28;20170;-61
2022/07/23 04:08:31;;;;;;;15.10;12.17;;;19.00;99.90;;;;;;5073623;28;20276;-60
2022/07/23 04:10:57;;;;;;;23.13;14.90;;;19.00;99.90;;;;;;5076711;28;20467;-61
2022/07/23 04:13:22;;;;;;;18.73;14.40;;;19.00;99.90;;;;;;5070564;28;21068;-60
2022/07/23 04:15:48;;;;;;;16.73;12.20;;;19.00;99.90;;;;;;5071798;28;20551;-61
2022/07/23 04:18:17;;;;;;;16.20;12.20;;;19.00;99.90;;;;;;5075308;28;20213;-61
2022/07/23 04:20:45;;;;;;;15.17;12.20;;;19.00;99.90;;;;;;5072788;28;20421;-60
2022/07/23 04:23:11;;;;;;;17.17;13.97;;;19.00;99.90;;;;;;5076646;28;20958;-60
2022/07/23 04:25:36;;;;;;;17.23;13.40;;;19.00;99.90;;;;;;5077092;28;20420;-61
2022/07/23 04:28:02;;;;;;;17.90;13.63;;;19.00;99.90;;;;;;5078431;28;20220;-60
2022/07/23 04:30:28;;;;;;;20.37;12.30;;;19.00;99.90;;;;;;5075468;28;20181;-60
2022/07/23 04:32:53;;;;;;;17.83;13.13;;;19.00;99.90;;;;;;5078627;28;20229;-60
2022/07/23 04:35:19;;;;;;;22.90;13.57;;;19.00;99.90;;;;;;5075539;28;20223;-60
2022/07/23 04:37:45;;;;;;;18.17;13.57;;;19.00;99.90;;;;;;5074660;28;20217;-60
2022/07/23 04:40:12;;;;;;;20.13;14.00;;;19.00;99.90;;;;;;5074557;28;20580;-60
2022/07/23 04:42:38;;;;;;;18.83;12.93;;;19.00;99.90;;;;;;5076793;28;20206;-59
2022/07/23 04:45:04;;;;;;;17.90;12.80;;;19.00;99.90;;;;;;5071511;28;20478;-60
2022/07/23 04:47:30;;;;;;;16.67;12.33;;;19.00;99.90;;;;;;5072232;28;20455;-59
2022/07/23 04:49:56;;;;;;;16.43;11.57;;;19.00;99.90;;;;;;5074790;28;20186;-61
2022/07/23 04:52:22;;;;;;;15.67;11.27;;;19.00;99.90;;;;;;5071157;28;20452;-59
2022/07/23 04:54:48;;;;;;;12.77;10.70;;;19.00;99.90;;;;;;5074985;28;21122;-59
2022/07/23 04:57:13;;;;;;;15.00;12.20;;;18.90;99.90;;;;;;5075574;28;20232;-60
2022/07/23 04:59:39;;;;;;;18.60;11.17;;;18.90;99.90;;;;;;5074766;28;20175;-60
2022/07/23 05:02:05;;;;;;;17.47;12.53;;;18.90;99.90;;;;;;5070377;28;20198;-60
2022/07/23 05:04:31;;;;;;;22.53;11.83;;;18.90;99.90;;;;;;5075048;28;20185;-60
2022/07/23 05:06:57;;;;;;;16.50;10.93;;;18.80;99.90;;;;;;5075883;28;20180;-59
2022/07/23 05:09:23;;;;;;;16.33;12.13;;;18.90;99.90;;;;;;5074512;28;20464;-58
2022/07/23 05:11:48;;;;;;;15.17;12.50;;;18.80;99.90;;;;;;5073472;28;20501;-61
2022/07/23 05:14:14;;;;;;;15.10;11.40;;;18.90;99.90;;;;;;5072858;28;20166;-60
2022/07/23 05:16:40;;;;;;;17.00;12.73;;;18.90;99.90;;;;;;5078601;28;20179;-59
2022/07/23 05:19:05;;;;;;;16.10;12.20;;;18.90;99.90;;;;;;5075437;28;20198;-60
2022/07/23 05:21:31;;;;;;;17.30;12.70;;;18.90;99.90;;;;;;5074493;28;20170;-60
2022/07/23 05:23:57;;;;;;;18.90;12.90;;;18.90;99.90;;;;;;5073289;28;20642;-60
2022/07/23 05:26:23;;;;;;;14.70;11.73;;;18.90;99.90;;;;;;5076055;28;20186;-61
2022/07/23 05:28:48;;;;;;;17.00;12.40;;;19.00;99.90;;;;;;5079642;28;20190;-61
2022/07/23 05:31:14;;;;;;;14.50;11.10;;;18.90;99.90;;;;;;5075802;28;20186;-61
2022/07/23 05:33:39;;;;;;;15.33;10.90;;;18.90;99.90;;;;;;5077625;28;20303;-59
2022/07/23 05:36:05;;;;;;;12.20;10.07;;;18.90;99.90;;;;;;5079270;28;20170;-60
2022/07/23 05:38:32;;;;;;;14.70;9.40;;;18.90;99.90;;;;;;5078731;28;20589;-60
2022/07/23 05:40:58;;;;;;;12.20;9.90;;;18.90;99.90;;;;;;5077581;28;20174;-59
2022/07/23 05:43:24;;;;;;;13.73;10.07;;;18.80;99.90;;;;;;5075301;28;20486;-59
2022/07/23 05:45:50;;;;;;;11.33;9.60;;;18.80;99.90;;;;;;5076016;28;20193;-59
2022/07/23 05:48:15;;;;;;;12.27;9.70;;;18.70;99.90;;;;;;5074924;28;20218;-58
2022/07/23 05:50:41;;;;;;;16.03;10.53;;;18.70;99.90;;;;;;5076258;28;20447;-58
2022/07/23 05:53:07;;;;;;;11.70;10.07;;;18.80;99.90;;;;;;5076187;28;20716;-59
2022/07/23 05:55:33;;;;;;;14.13;10.50;;;18.80;99.90;;;;;;5080282;28;20584;-58
2022/07/23 05:57:59;;;;;;;14.33;10.50;;;18.90;99.90;;;;;;5075370;28;20214;-59
2022/07/23 06:00:25;;;;;;;14.93;10.87;;;19.00;99.90;;;;;;5071867;28;20515;-59
2022/07/23 06:02:51;;;;;;;13.63;10.77;;;19.10;99.90;;;;;;5073892;28;20447;-59
2022/07/23 06:05:17;;;;;;;12.97;11.10;;;19.20;99.90;;;;;;5077068;28;20432;-58
2022/07/23 06:07:43;;;;;;;15.03;11.60;;;19.20;99.90;;;;;;5077444;28;20452;-58
2022/07/23 06:10:08;;;;;;;18.80;12.00;;;19.30;99.90;;;;;;5078960;28;20234;-58
2022/07/23 06:12:35;;;;;;;16.37;12.33;;;19.30;99.90;;;;;;5082353;28;20193;-58
2022/07/23 06:15:00;;;;;;;17.70;11.47;;;19.30;99.90;;;;;;5077815;28;20197;-59
2022/07/23 06:17:26;;;;;;;13.67;11.27;;;19.40;99.90;;;;;;5075852;28;20475;-59
2022/07/23 06:19:53;;;;;;;16.57;13.20;;;19.40;99.90;;;;;;5078930;28;20170;-59
2022/07/23 06:22:19;;;;;;;18.70;13.50;;;19.50;99.90;;;;;;5079969;28;20411;-58
2022/07/23 06:24:44;;;;;;;16.37;13.70;;;19.60;99.90;;;;;;5073069;28;20527;-58
2022/07/23 06:27:10;;;;;;;17.53;13.90;;;19.70;99.90;;;;;;5075801;28;20516;-57
2022/07/23 06:29:36;;;;;;;18.30;15.70;;;19.80;99.90;;;;;;5074800;28;20265;-56
2022/07/23 06:32:01;;;;;;;20.50;13.93;;;19.90;99.90;;;;;;5071818;28;20289;-57
2022/07/23 06:34:27;;;;;;;21.13;15.17;;;20.00;99.90;;;;;;5070989;28;20183;-58
2022/07/23 06:36:53;;;;;;;21.60;14.47;;;20.00;99.90;;;;;;5074331;28;20161;-57
2022/07/23 06:39:18;;;;;;;18.60;14.10;;;20.10;99.90;;;;;;5073718;28;20871;-59
2022/07/23 06:41:44;;;;;;;16.57;14.00;;;20.20;99.90;;;;;;5070832;28;20208;-59
2022/07/23 06:44:10;;;;;;;19.60;14.73;;;20.30;99.90;;;;;;5073011;28;20212;-58
2022/07/23 06:46:35;;;;;;;19.53;14.60;;;20.40;99.90;;;;;;5071910;28;20193;-59
2022/07/23 06:49:01;;;;;;;18.73;14.43;;;20.50;99.90;;;;;;5073389;28;20284;-56
2022/07/23 06:51:26;;;;;;;19.20;14.30;;;20.60;99.90;;;;;;5074281;28;20173;-57
2022/07/23 06:53:52;;;;;;;15.67;13.53;;;20.60;99.90;;;;;;5076566;28;20200;-57
2022/07/23 06:56:18;;;;;;;20.17;13.70;;;20.60;99.90;;;;;;5069811;28;20264;-58
2022/07/23 06:58:43;;;;;;;18.83;14.00;;;20.60;99.90;;;;;;5068415;28;20220;-58
2022/07/23 07:01:09;;;;;;;18.43;12.37;;;20.60;99.90;;;;;;5070056;28;20194;-58
2022/07/23 07:03:35;;;;;;;18.10;13.43;;;20.60;99.90;;;;;;5070668;28;20742;-58
2022/07/23 07:06:02;;;;;;;19.00;13.20;;;20.70;99.90;;;;;;5069903;28;20182;-58
2022/07/23 07:08:27;;;;;;;15.67;12.20;;;20.80;99.90;;;;;;5070789;28;20240;-58
2022/07/23 07:10:53;;;;;;;17.57;13.03;;;20.90;99.90;;;;;;5072290;28;20456;-58
2022/07/23 07:13:19;;;;;;;17.67;12.17;;;21.10;99.90;;;;;;5070098;28;20860;-59
2022/07/23 07:15:44;;;;;;;16.50;11.90;;;21.20;99.90;;;;;;5070973;28;20178;-58
2022/07/23 07:18:10;;;;;;;13.10;11.43;;;21.40;99.90;;;;;;5069829;28;20201;-59
2022/07/23 07:20:36;;;;;;;17.70;10.90;;;21.40;99.90;;;;;;5067982;28;20171;-57
2022/07/23 07:23:01;;;;;;;13.33;10.40;;;21.30;99.90;;;;;;5066881;28;20189;-59
2022/07/23 07:25:27;;;;;;;12.77;9.90;;;21.40;99.90;;;;;;5067455;28;20273;-62
2022/07/23 07:27:53;;;;;;;11.50;9.93;;;21.50;99.90;;;;;;5067244;28;20217;-60
2022/07/23 07:30:18;;;;;;;15.07;10.63;;;21.50;99.90;;;;;;5068999;28;20866;-60
2022/07/23 07:32:44;;;;;;;14.00;11.00;;;21.50;99.90;;;;;;5072742;28;20205;-61
2022/07/23 07:35:10;;;;;;;14.00;10.17;;;21.50;99.90;;;;;;5074247;28;22123;-63
2022/07/23 07:37:35;;;;;;;15.03;11.47;;;21.40;99.90;;;;;;5072614;28;20619;-62
2022/07/23 07:40:02;;;;;;;18.57;12.00;;;21.20;99.90;;;;;;5071940;28;20170;-59
2022/07/23 07:42:28;;;;;;;16.00;11.93;;;21.10;99.90;;;;;;5075946;28;20181;-62
2022/07/23 07:44:53;;;;;;;15.53;11.30;;;21.00;99.90;;;;;;5076321;28;20440;-61
2022/07/23 07:47:19;;;;;;;15.57;11.03;;;21.00;99.90;;;;;;5072875;28;20194;-60
2022/07/23 07:49:44;;;;;;;14.80;11.97;;;21.00;99.90;;;;;;5075269;28;20174;-63
2022/07/23 07:52:11;;;;;;;19.00;11.97;;;21.00;99.90;;;;;;5072771;28;20201;-63
2022/07/23 07:54:36;;;;;;;15.33;11.37;;;21.00;99.90;;;;;;5073738;28;20186;-64
2022/07/23 07:57:02;;;;;;;15.00;11.93;;;21.00;99.90;;;;;;5073855;28;20447;-63
2022/07/23 07:59:28;;;;;;;13.40;11.93;;;21.00;99.90;;;;;;5078623;28;20424;-59
2022/07/23 08:01:54;;;;;;;15.23;12.47;;;21.00;99.90;;;;;;5073691;28;20237;-61
2022/07/23 08:04:19;;;;;;;15.63;11.43;;;21.00;99.90;;;;;;5070085;28;20179;-62
2022/07/23 08:06:45;;;;;;;15.70;13.00;;;21.00;99.90;;;;;;5066891;28;20178;-61
2022/07/23 08:09:10;;;;;;;17.40;13.60;;;20.90;99.90;;;;;;5075284;28;20379;-62
2022/07/23 08:11:36;;;;;;;22.00;13.57;;;20.80;99.90;;;;;;5077822;28;20253;-61
2022/07/23 08:14:02;;;;;;;21.50;14.57;;;20.70;99.90;;;;;;5065934;28;20270;-61
2022/07/23 08:16:28;;;;;;;18.70;13.60;;;20.60;99.90;;;;;;5071723;28;20264;-60
2022/07/23 08:18:53;;;;;;;18.73;12.87;;;20.60;99.90;;;;;;5077012;28;20640;-62
2022/07/23 08:21:19;;;;;;;17.50;14.47;;;20.60;99.90;;;;;;5071507;28;20178;-61
2022/07/23 08:23:45;;;;;;;14.90;13.13;;;20.60;99.90;;;;;;5073716;28;20243;-61
2022/07/23 08:26:11;;;;;;;19.90;13.97;;;20.70;99.90;;;;;;5073958;28;20611;-62
2022/07/23 08:28:36;;;;;;;20.43;12.07;;;20.70;99.90;;;;;;5074791;28;20197;-61
2022/07/23 08:31:02;;;;;;;18.63;13.20;;;20.80;99.90;;;;;;5072651;28;20801;-61
2022/07/23 08:33:28;;;;;;;19.10;13.70;;;20.80;99.90;;;;;;5073430;28;20244;-61
2022/07/23 08:35:54;;;;;;;18.53;12.03;;;21.00;99.90;;;;;;5076436;28;20198;-61
2022/07/23 08:38:21;;;;;;;17.00;13.17;;;21.10;99.90;;;;;;5074655;28;20334;-60
2022/07/23 08:40:52;;;;;;;15.40;12.97;;;21.20;99.90;;;;;;5077468;28;20170;-60
2022/07/23 08:43:22;;;;;;;16.13;12.80;;;21.30;99.90;;;;;;5074733;28;20512;-61
2022/07/23 08:45:50;;;;;;;16.20;11.83;;;21.50;99.90;;;;;;5076441;28;20470;-62
2022/07/23 08:48:21;;;;;;;16.07;12.60;;;21.60;99.90;;;;;;5076992;28;20525;-60
2022/07/23 08:50:49;;;;;;;17.00;12.60;;;21.70;99.90;;;;;;5068939;28;20436;-63
2022/07/23 08:53:16;;;;;;;14.63;12.03;;;21.70;99.90;;;;;;5072766;28;20547;-62
2022/07/23 08:55:46;;;;;;;17.20;11.40;;;21.80;99.90;;;;;;5079518;28;20429;-62
2022/07/23 08:58:12;;;;;;;16.23;12.17;;;21.90;99.90;;;;;;5082680;28;20431;-63
2022/07/23 09:00:38;;;;;;;15.80;11.50;;;21.90;99.90;;;;;;5084710;28;20443;-60
2022/07/23 09:03:04;;;;;;;17.90;12.27;;;21.90;99.90;;;;;;5088770;28;20428;-60
2022/07/23 09:05:29;;;;;;;15.10;11.20;;;22.00;99.90;;;;;;5075554;28;20182;-62
2022/07/23 09:08:10;;;;;;;15.93;12.10;;;22.10;99.90;;;;;;5085150;28;20248;-61
2022/07/23 09:10:54;;;;;;;16.07;12.30;;;22.10;99.90;;;;;;5088397;28;20189;-62
2022/07/23 09:13:27;;;;;;;18.43;13.13;;;22.20;99.90;;;;;;5071680;28;20456;-61
2022/07/23 09:15:55;;;;;;;19.33;12.93;;;22.20;99.90;;;;;;5079409;28;20455;-61
2022/07/23 09:18:32;;;;;;;15.73;12.73;;;22.30;99.90;;;;;;5079368;28;20440;-61
2022/07/23 09:21:07;;;;;;;16.03;13.50;;;22.40;99.90;;;;;;5074554;28;20420;-64
2022/07/23 09:23:42;;;;;;;15.93;13.20;;;22.50;99.90;;;;;;5078363;28;20436;-61
2022/07/23 09:26:47;;;;;;;17.53;13.10;;;22.50;99.90;;;;;;5078845;28;21103;-62
2022/07/23 09:29:24;;;;;;;17.37;13.30;;;22.60;99.90;;;;;;5062280;28;20956;-62
2022/07/23 09:31:58;;;;;;;19.97;12.80;;;22.70;99.90;;;;;;5077774;28;20436;-62
2022/07/23 09:34:33;;;;;;;13.47;11.97;;;22.70;99.90;;;;;;5070867;28;20511;-61
2022/07/23 09:37:08;;;;;;;14.27;11.53;;;22.70;99.90;;;;;;5077527;28;20481;-65
2022/07/23 09:39:34;;;;;;;14.50;11.23;;;22.90;99.90;;;;;;5076666;28;20440;-61
2022/07/23 09:42:21;;;;;;;17.23;12.30;;;23.10;99.90;;;;;;5077564;28;20439;-63
2022/07/23 09:44:49;;;;;;;13.83;11.60;;;23.30;99.90;;;;;;5078047;28;20651;-62
2022/07/23 09:47:15;;;;;;;17.40;11.70;;;23.40;99.90;;;;;;5076159;28;20434;-62
2022/07/23 09:50:01;;;;;;;13.87;11.10;;;23.40;99.90;;;;;;5076224;28;20463;-60
2022/07/23 09:52:35;;;;;;;19.53;12.20;;;23.40;99.90;;;;;;5074256;28;20452;-61
2022/07/23 09:55:04;;;;;;;13.13;11.80;;;23.40;99.90;;;;;;5076999;28;20514;-62
2022/07/23 09:57:31;;;;;;;15.13;12.00;;;23.40;99.90;;;;;;5075516;28;20537;-61
2022/07/23 10:00:00;;;;;;;14.10;12.50;;;23.40;99.90;;;;;;5079405;28;20417;-63
2022/07/23 10:02:28;;;;;;;14.40;12.37;;;23.40;99.90;;;;;;5078521;28;20448;-61
2022/07/23 10:04:57;;;;;;;15.23;12.40;;;23.60;99.90;;;;;;5080412;28;20425;-62
2022/07/23 10:07:24;;;;;;;15.20;12.30;;;23.70;99.90;;;;;;5071364;28;20945;-60
2022/07/23 10:09:52;;;;;;;16.77;12.70;;;23.90;99.90;;;;;;5078245;28;20436;-61
2022/07/23 10:15:04;;;;;;;14.67;12.17;;;24.00;99.90;;;;;;5073413;28;20524;-63
2022/07/23 10:17:30;;;;;;;16.07;11.20;;;24.10;99.90;;;;;;5073363;28;20443;-64
2022/07/23 10:19:56;;;;;;;15.50;11.83;;;24.20;99.90;;;;;;5076552;28;20443;-61
2022/07/23 10:22:28;;;;;;;12.73;11.43;;;24.40;99.90;;;;;;5080215;28;20178;-63
2022/07/23 10:25:23;;;;;;;13.90;11.30;;;24.50;99.00;;;;;;5077023;28;20268;-61
2022/07/23 10:28:11;;;;;;;15.10;12.27;;;24.60;96.60;;;;;;5076506;28;20440;-63
2022/07/23 10:30:45;;;;;;;15.13;12.00;;;24.50;97.60;;;;;;5074514;28;20525;-62
2022/07/23 10:33:48;;;;;;;16.97;11.80;;;24.50;98.40;;;;;;5072228;28;20463;-61
2022/07/23 10:36:29;;;;;;;15.20;12.30;;;24.50;99.10;;;;;;5075578;28;20427;-61
2022/07/23 10:39:32;;;;;;;13.57;11.73;;;24.60;99.50;;;;;;5076031;28;20455;-61
2022/07/23 10:42:15;;;;;;;13.07;11.17;;;24.70;97.80;;;;;;5082355;28;20440;-61
2022/07/23 10:44:45;;;;;;;13.03;10.50;;;24.70;98.80;;;;;;5081346;28;21120;-61
2022/07/23 10:49:53;;;;;;;14.80;11.93;;;25.10;93.60;;;;;;5077593;28;20459;-62
2022/07/23 10:52:24;;;;;;;14.20;12.30;;;25.20;92.30;;;;;;5074582;28;20495;-63
2022/07/23 10:54:55;;;;;;;14.10;11.50;;;25.30;95.00;;;;;;5080905;28;20790;-64
2022/07/23 10:57:26;;;;;;;18.87;12.77;;;25.50;94.20;;;;;;5086185;28;20462;-60
2022/07/23 11:00:01;;;;;;;15.77;12.77;;;25.70;94.40;;;;;;5075440;28;21173;-61
2022/07/23 11:02:29;;;;;;;14.07;12.67;;;25.90;92.50;;;;;;5081133;28;20551;-60
2022/07/23 11:05:10;;;;;;;12.60;11.30;;;25.90;91.10;;;;;;5079912;28;20431;-62
2022/07/23 11:07:56;;;;;;;16.60;11.80;;;25.80;89.90;;;;;;5075433;28;20811;-66
2022/07/23 11:11:05;;;;;;;14.17;12.27;;;25.70;90.30;;;;;;5078772;28;20436;-62
2022/07/23 11:13:44;;;;;;;14.53;11.43;;;25.50;86.60;;;;;;5066209;28;20460;-64
2022/07/23 11:16:23;;;;;;;16.43;13.40;;;25.40;91.60;;;;;;5087943;28;20430;-60
2022/07/23 11:18:49;;;;;;;18.00;13.50;;;25.30;93.00;;;;;;5076201;28;20450;-61
2022/07/23 11:21:21;;;;;;;15.07;12.10;;;25.30;93.90;;;;;;5074190;28;20428;-62
2022/07/23 11:24:09;;;;;;;18.10;12.40;;;25.40;94.00;;;;;;5079316;28;20184;-63
2022/07/23 11:26:41;;;;;;;13.90;12.40;;;25.80;93.40;;;;;;5082618;28;20484;-65
2022/07/23 11:29:28;;;;;;;14.20;11.90;;;26.10;90.70;;;;;;5075279;28;20443;-61
2022/07/23 11:32:22;;;;;;;15.77;13.10;;;26.20;91.20;;;;;;5075657;28;20435;-60
2022/07/23 11:34:49;;;;;;;15.50;12.67;;;26.30;90.50;;;;;;5080133;28;20430;-61
2022/07/23 11:37:41;;;;;;;14.37;11.43;;;26.30;92.60;;;;;;5075916;28;20471;-61
2022/07/23 11:40:14;;;;;;;14.00;12.20;;;26.40;92.50;;;;;;5077802;28;20444;-62
2022/07/23 11:42:55;;;;;;;13.07;11.77;;;26.50;90.30;;;;;;5073647;28;20430;-62
2022/07/23 11:45:22;;;;;;;14.10;12.50;;;26.50;85.80;;;;;;5074719;28;20443;-63
2022/07/23 11:47:48;;;;;;;13.90;12.10;;;26.70;83.10;;;;;;5075567;28;20458;-63
2022/07/23 11:50:14;;;;;;;16.13;13.30;;;26.70;88.40;;;;;;5079285;28;20518;-64
2022/07/23 11:52:40;;;;;;;15.50;11.93;;;26.50;90.30;;;;;;5078362;28;20248;-61
2022/07/23 11:55:09;;;;;;;13.30;11.90;;;26.40;91.30;;;;;;5075868;28;20177;-62
2022/07/23 11:57:37;;;;;;;13.13;11.73;;;26.30;92.60;;;;;;5078276;28;20197;-63
2022/07/23 12:00:06;;;;;;;15.53;13.53;;;26.20;93.00;;;;;;5075711;28;20432;-63
2022/07/23 12:02:32;;;;;;;17.53;13.83;;;26.00;94.50;;;;;;5077505;28;20435;-62
2022/07/23 12:04:57;;;;;;;15.60;13.10;;;25.80;94.90;;;;;;5079205;28;20492;-61
2022/07/23 12:07:32;;;;;;;14.30;12.07;;;25.50;95.80;;;;;;5079735;28;20210;-61
2022/07/23 12:10:02;;;;;;;14.23;12.30;;;25.30;96.30;;;;;;5074220;28;20177;-62
2022/07/23 12:12:34;;;;;;;15.40;12.73;;;25.20;97.70;;;;;;5079950;28;20828;-61
2022/07/23 12:15:00;;;;;;;17.50;13.20;;;25.00;99.40;;;;;;5072772;28;20541;-61
2022/07/23 12:17:31;;;;;;;16.83;14.37;;;24.90;98.80;;;;;;5078822;28;20459;-62
2022/07/23 12:19:58;;;;;;;17.20;13.00;;;24.90;99.00;;;;;;5075170;28;20173;-63
2022/07/23 12:22:26;;;;;;;17.83;13.10;;;25.00;99.40;;;;;;5073558;28;20944;-65
2022/07/23 12:24:54;;;;;;;14.07;12.00;;;25.30;96.50;;;;;;5077003;28;20431;-62
2022/07/23 12:27:23;;;;;;;15.37;13.37;;;25.60;95.70;;;;;;5075872;28;20533;-61
2022/07/23 12:29:49;;;;;;;13.87;12.47;;;26.00;94.30;;;;;;5083382;28;20431;-66
2022/07/23 12:32:29;;;;;;;14.57;13.03;;;26.30;92.20;;;;;;5078092;28;20463;-62
2022/07/23 12:35:06;;;;;;;16.87;11.93;;;26.30;90.90;;;;;;5076098;28;20447;-63
2022/07/23 12:37:38;;;;;;;15.00;11.47;;;26.20;83.40;;;;;;5079036;28;20442;-62
2022/07/23 12:40:23;;;;;;;19.10;11.33;;;26.30;88.70;;;;;;5088119;28;20434;-62